Fonthida Naree — HSJR — position and weather

sailwx.info

Track history (hours):
 
Tides and Currents Weather Stations Pressure Air Temp Water Temp Dewpoint Dewpoint Depression Visibility Wind Speed Wind Dir Waves Ship Positions

Fonthida Naree

Last reported at 2014-Sep-15 04:20 UTC. Time now 2014-Sep-20 21:58 UTC.
Position S 30°48' E 030°37'.

Length 170 m; draft 10.3 m.

Type: Cargo ship. MMSI: 567265000.

Date/timePositionNaut miles runAvg speedWind from/ knotsBaromVisibWave heightAir tempDewpointWater temp
2014-Sep-15 04:20S 30°48' E 030°37'1213.4
2014-Sep-15 03:27S 30°38' E 030°43'1111.9
2014-Sep-15 02:33S 30°28' E 030°49'1211.9
2014-Sep-15 01:33S 30°18' E 030°55'1413.0
2014-Sep-15 00:28S 30°05' E 031°02'1213.0
2014-Sep-14 23:32S 29°54' E 031°08'6 6.0
2014-Sep-14 22:32S 29°52' E 031°02'0 0.4
2014-Sep-14 21:34S 29°52' E 031°02'0 0.0
2014-Sep-14 20:33S 29°52' E 031°02'0 0.0
2014-Sep-14 19:12S 29°52' E 031°02'0 0.0
2014-Sep-14 18:30S 29°52' E 031°02'0 0.0
2014-Sep-14 16:06S 29°52' E 031°02'0 0.0
2014-Sep-14 14:30S 29°52' E 031°02'0 0.0
2014-Sep-14 12:30S 29°52' E 031°02'0 0.0
2014-Sep-14 11:30S 29°52' E 031°02'0 0.0
2014-Sep-14 03:33S 29°52' E 031°02'5 5.0
2014-Sep-14 02:32S 29°50' E 031°07'1 0.7
2014-Sep-14 01:29S 29°49' E 031°06'4 1.0
2014-Sep-13 21:34S 29°53' E 031°08'1 1.4
2014-Sep-13 20:33S 29°52' E 031°09'1 1.4
2014-Sep-13 19:32S 29°50' E 031°09'1 1.2
2014-Sep-13 18:25S 29°49' E 031°10'3 3.7
2014-Sep-13 17:33S 29°48' E 031°14'1311.9
2014-Sep-13 16:29S 29°43' E 031°27'1613.1
2014-Sep-13 15:16S 29°38' E 031°45'1114.5
2014-Sep-13 14:28S 29°36' E 031°58'1313.8
2014-Sep-13 13:32S 29°33' E 032°12'  
Track history (hours):
 
Tides and Currents Weather Stations Pressure Air Temp Water Temp Dewpoint Dewpoint Depression Visibility Wind Speed Wind Dir Waves Ship Positions

Fonthida Naree

Last reported at 2014-Sep-15 04:20 UTC. Time now 2014-Sep-20 21:58 UTC.
Position S 30°48' E 030°37'.

Length 170 m; draft 10.3 m.

Type: Cargo ship. MMSI: 567265000.

Date/timePositionNaut miles runAvg speedWind from/ knotsBaromVisibWave heightAir tempDewpointWater temp
2014-Sep-15 04:20S 30°48' E 030°37'1213.4
2014-Sep-15 03:27S 30°38' E 030°43'1111.9
2014-Sep-15 02:33S 30°28' E 030°49'1211.9
2014-Sep-15 01:33S 30°18' E 030°55'1413.0
2014-Sep-15 00:28S 30°05' E 031°02'1213.0
2014-Sep-14 23:32S 29°54' E 031°08'6 6.0
2014-Sep-14 22:32S 29°52' E 031°02'0 0.4
2014-Sep-14 21:34S 29°52' E 031°02'0 0.0
2014-Sep-14 20:33S 29°52' E 031°02'0 0.0
2014-Sep-14 19:12S 29°52' E 031°02'0 0.0
2014-Sep-14 18:30S 29°52' E 031°02'0 0.0
2014-Sep-14 16:06S 29°52' E 031°02'0 0.0
2014-Sep-14 14:30S 29°52' E 031°02'0 0.0
2014-Sep-14 12:30S 29°52' E 031°02'0 0.0
2014-Sep-14 11:30S 29°52' E 031°02'0 0.0
2014-Sep-14 03:33S 29°52' E 031°02'5 5.0
2014-Sep-14 02:32S 29°50' E 031°07'1 0.7
2014-Sep-14 01:29S 29°49' E 031°06'4 1.0
2014-Sep-13 21:34S 29°53' E 031°08'1 1.4
2014-Sep-13 20:33S 29°52' E 031°09'1 1.4
2014-Sep-13 19:32S 29°50' E 031°09'1 1.2
2014-Sep-13 18:25S 29°49' E 031°10'3 3.7
2014-Sep-13 17:33S 29°48' E 031°14'1311.9
2014-Sep-13 16:29S 29°43' E 031°27'1613.1
2014-Sep-13 15:16S 29°38' E 031°45'1114.5
2014-Sep-13 14:28S 29°36' E 031°58'1313.8
2014-Sep-13 13:32S 29°33' E 032°12'  

Dump ship's entire track history